createdAt,value
2023-03-26T00:01:37.527Z,6.72
2023-03-26T00:04:43.128Z,7.05
2023-03-26T00:07:47.106Z,6.07
2023-03-26T00:10:50.940Z,6.47
2023-03-26T00:13:58.066Z,5.55
2023-03-26T00:17:02.002Z,6.75
2023-03-26T00:20:06.581Z,5.60
2023-03-26T00:23:10.284Z,6.47
2023-03-26T00:26:14.577Z,6.25
2023-03-26T00:29:19.238Z,5.55
2023-03-26T00:32:23.762Z,7.43
2023-03-26T00:35:27.633Z,7.72
2023-03-26T00:38:31.870Z,11.75
2023-03-26T00:41:44.326Z,10.65
2023-03-26T00:44:48.387Z,12.90
2023-03-26T00:47:52.256Z,10.48
2023-03-26T00:50:57.365Z,14.60
2023-03-26T00:54:01.317Z,18.10
2023-03-26T00:57:07.630Z,18.08
2023-03-26T01:00:15.836Z,22.43
2023-03-26T01:03:27.552Z,24.48
2023-03-26T01:06:36.492Z,21.52
2023-03-26T01:09:51.041Z,15.35
2023-03-26T01:12:55.062Z,16.38
2023-03-26T01:16:02.813Z,16.20
2023-03-26T01:19:13.492Z,17.50
2023-03-26T01:22:23.803Z,20.60
2023-03-26T01:25:35.386Z,16.35
2023-03-26T01:28:42.316Z,21.02
2023-03-26T01:32:04.067Z,17.45
2023-03-26T01:35:53.894Z,21.27
2023-03-26T01:39:19.621Z,20.58
2023-03-26T01:42:42.347Z,17.45
2023-03-26T01:45:48.890Z,12.77
2023-03-26T01:48:52.726Z,10.38
2023-03-26T01:51:58.875Z,11.68
2023-03-26T01:55:03.474Z,8.43
2023-03-26T01:58:29.887Z,3.88
2023-03-26T02:02:01.859Z,3.85
2023-03-26T02:05:50.200Z,4.57
2023-03-26T02:08:59.987Z,3.33
2023-03-26T02:12:05.295Z,4.32
2023-03-26T02:15:09.748Z,4.05
2023-03-26T02:18:14.369Z,5.68
2023-03-26T02:21:26.643Z,3.50
2023-03-26T02:24:31.421Z,4.18
2023-03-26T02:27:35.179Z,5.28
2023-03-26T02:30:40.826Z,4.35
2023-03-26T02:33:48.084Z,3.75
2023-03-26T02:36:52.232Z,3.92
2023-03-26T02:39:56.192Z,3.67
2023-03-26T02:43:07.293Z,3.67
2023-03-26T02:46:12.465Z,4.30
2023-03-26T02:49:31.440Z,4.55
2023-03-26T02:52:36.668Z,3.88
2023-03-26T02:55:41.450Z,4.28
2023-03-26T02:58:44.855Z,5.40
2023-03-26T03:01:49.180Z,2.40
2023-03-26T03:05:02.042Z,3.60
2023-03-26T03:08:09.801Z,4.53
2023-03-26T03:11:25.469Z,3.92
2023-03-26T03:17:45.171Z,3.58
2023-03-26T03:20:49.114Z,3.90
2023-03-26T03:23:54.280Z,3.03
2023-03-26T03:27:00.382Z,3.80
2023-03-26T03:30:13.296Z,4.00
2023-03-26T03:33:44.003Z,3.97
2023-03-26T03:36:49.312Z,3.87
2023-03-26T03:40:09.188Z,3.08
2023-03-26T03:43:13.857Z,2.65
2023-03-26T03:46:31.202Z,3.10
2023-03-26T03:49:35.017Z,3.30
2023-03-26T03:52:39.171Z,3.80
2023-03-26T03:55:43.836Z,3.25
2023-03-26T03:58:48.365Z,3.40
2023-03-26T04:02:00.465Z,5.35
2023-03-26T04:05:13.754Z,4.47
2023-03-26T04:08:23.610Z,3.05
2023-03-26T04:11:30.279Z,2.72
2023-03-26T04:14:47.365Z,3.58
2023-03-26T04:17:53.558Z,3.47
2023-03-26T04:20:57.022Z,3.30
2023-03-26T04:24:03.579Z,2.78
2023-03-26T04:27:45.715Z,3.80
2023-03-26T04:30:56.482Z,3.83
2023-03-26T04:34:14.808Z,1.85
2023-03-26T04:37:35.189Z,2.17
2023-03-26T04:40:50.724Z,2.30
2023-03-26T04:44:17.650Z,2.10
2023-03-26T04:47:26.865Z,2.85
2023-03-26T04:50:31.178Z,2.92
2023-03-26T04:53:36.068Z,2.42
2023-03-26T04:57:09.302Z,2.40
2023-03-26T05:00:35.681Z,2.60
2023-03-26T05:03:41.314Z,2.25
2023-03-26T05:06:48.520Z,1.90
2023-03-26T05:09:58.817Z,2.10
2023-03-26T05:13:12.109Z,2.05
2023-03-26T05:16:22.959Z,1.95
2023-03-26T05:19:33.757Z,2.20
2023-03-26T05:22:39.514Z,2.13
2023-03-26T05:25:51.046Z,1.85
2023-03-26T05:28:58.952Z,1.75
2023-03-26T05:32:09.861Z,1.15
2023-03-26T05:35:13.974Z,1.20
2023-03-26T05:38:18.782Z,1.50
2023-03-26T05:41:22.969Z,1.67
2023-03-26T05:44:26.694Z,1.80
2023-03-26T05:47:30.293Z,1.73
2023-03-26T05:50:34.177Z,2.17
2023-03-26T05:53:37.165Z,1.70
2023-03-26T05:57:07.021Z,2.85
2023-03-26T06:00:29.205Z,2.20
2023-03-26T06:03:34.455Z,1.30
2023-03-26T06:06:57.610Z,2.00
2023-03-26T06:10:01.900Z,1.80
2023-03-26T06:13:05.544Z,1.60
2023-03-26T06:16:26.135Z,1.70
2023-03-26T06:20:09.970Z,1.70
2023-03-26T06:23:17.102Z,1.35
2023-03-26T06:26:30.270Z,2.00
2023-03-26T06:29:52.367Z,1.77
2023-03-26T06:33:24.077Z,2.03
2023-03-26T06:36:28.416Z,2.50
2023-03-26T06:39:32.246Z,2.15
2023-03-26T06:43:07.746Z,2.08
2023-03-26T06:46:29.538Z,1.98
2023-03-26T06:49:55.853Z,2.07
2023-03-26T06:53:17.038Z,2.05
2023-03-26T06:56:38.449Z,2.85
2023-03-26T07:00:15.098Z,3.00
2023-03-26T07:03:37.151Z,3.58
2023-03-26T07:06:58.618Z,5.82
2023-03-26T07:10:38.091Z,5.53
2023-03-26T07:14:03.584Z,1.60
2023-03-26T07:17:38.621Z,3.08
2023-03-26T07:20:51.740Z,3.53
2023-03-26T07:23:57.183Z,3.03
2023-03-26T07:27:27.736Z,3.20
2023-03-26T07:30:40.432Z,2.83
2023-03-26T07:35:03.940Z,3.75
2023-03-26T07:38:43.429Z,4.82
2023-03-26T07:42:46.717Z,2.60
2023-03-26T07:46:12.478Z,1.98
2023-03-26T07:49:39.215Z,1.52
2023-03-26T07:53:04.972Z,1.90
2023-03-26T07:57:07.844Z,1.70
2023-03-26T08:00:24.668Z,1.63
2023-03-26T08:03:57.178Z,1.65
2023-03-26T08:07:30.804Z,2.00
2023-03-26T08:11:14.725Z,2.22
2023-03-26T08:14:44.666Z,1.52
2023-03-26T08:18:27.814Z,2.50
2023-03-26T08:21:49.139Z,3.40
2023-03-26T08:25:34.433Z,2.40
2023-03-26T08:29:06.171Z,2.97
2023-03-26T08:32:16.406Z,2.40
2023-03-26T08:35:20.130Z,3.20
2023-03-26T08:38:24.410Z,4.88
2023-03-26T08:42:01.571Z,4.43
2023-03-26T08:45:44.117Z,3.10
2023-03-26T08:49:02.368Z,3.63
2023-03-26T08:52:18.239Z,1.98
2023-03-26T08:55:24.929Z,2.25
2023-03-26T08:58:49.580Z,2.13
2023-03-26T09:02:02.627Z,2.80
2023-03-26T09:05:37.007Z,2.38
2023-03-26T09:08:54.382Z,1.60
2023-03-26T09:12:45.229Z,1.70
2023-03-26T09:16:11.312Z,1.77
2023-03-26T09:19:45.968Z,2.00
2023-03-26T09:23:28.836Z,2.90
2023-03-26T09:26:53.870Z,22.55
2023-03-26T09:32:50.540Z,3.83
2023-03-26T09:36:14.554Z,6.45
2023-03-26T09:39:29.645Z,4.07
2023-03-26T09:42:46.159Z,5.25
2023-03-26T09:46:18.282Z,6.37
2023-03-26T09:50:04.250Z,4.70
2023-03-26T09:53:10.859Z,4.70
2023-03-26T09:56:59.475Z,5.23
2023-03-26T10:00:24.005Z,4.65
2023-03-26T10:03:38.954Z,4.00
2023-03-26T10:07:19.595Z,5.10
2023-03-26T10:10:51.630Z,4.55
2023-03-26T10:14:19.795Z,3.20
2023-03-26T10:18:02.545Z,7.07
2023-03-26T10:21:32.149Z,5.57
2023-03-26T10:27:11.482Z,6.50
2023-03-26T10:30:42.191Z,7.53
2023-03-26T10:34:09.577Z,6.68
2023-03-26T10:40:56.172Z,3.55
2023-03-26T10:44:26.479Z,3.22
2023-03-26T10:47:47.702Z,2.45
2023-03-26T10:51:20.920Z,4.20
2023-03-26T10:54:37.371Z,4.20
2023-03-26T10:57:53.558Z,6.03
2023-03-26T11:01:12.325Z,4.40
2023-03-26T11:05:45.179Z,5.55
2023-03-26T11:08:54.065Z,5.68
2023-03-26T11:12:26.600Z,3.45
2023-03-26T11:15:34.541Z,5.35
2023-03-26T11:19:13.143Z,5.82
2023-03-26T11:22:48.273Z,6.63
2023-03-26T11:26:00.374Z,9.05
2023-03-26T11:29:30.971Z,18.83
2023-03-26T11:32:48.861Z,25.85
2023-03-26T11:35:56.804Z,23.20
2023-03-26T11:39:05.494Z,16.40
2023-03-26T11:42:15.103Z,15.13
2023-03-26T11:45:25.709Z,14.95
2023-03-26T11:51:39.630Z,13.40
2023-03-26T11:54:44.362Z,13.52
2023-03-26T11:57:56.230Z,16.10
2023-03-26T12:01:06.027Z,15.77
2023-03-26T12:04:16.450Z,14.13
2023-03-26T12:07:35.520Z,10.27
2023-03-26T12:10:43.666Z,11.55
2023-03-26T12:14:01.457Z,13.82
2023-03-26T12:17:09.409Z,13.73
2023-03-26T12:20:25.745Z,14.95
2023-03-26T12:23:57.893Z,16.88
2023-03-26T12:27:31.447Z,19.92
2023-03-26T12:30:46.024Z,12.27
2023-03-26T12:34:20.016Z,11.48
2023-03-26T12:37:37.068Z,10.40
2023-03-26T12:40:43.246Z,10.20
2023-03-26T12:44:53.414Z,13.75
2023-03-26T12:47:59.882Z,18.50
2023-03-26T12:51:07.675Z,10.55
2023-03-26T12:54:24.378Z,5.55
2023-03-26T12:57:42.042Z,7.25
2023-03-26T13:01:03.651Z,11.50
2023-03-26T13:04:29.281Z,14.48
2023-03-26T13:07:59.726Z,16.30
2023-03-26T13:11:20.689Z,12.50
2023-03-26T13:14:48.968Z,13.13
2023-03-26T13:18:21.810Z,16.55
2023-03-26T13:21:31.272Z,13.95
2023-03-26T13:24:49.160Z,9.23
2023-03-26T13:28:21.486Z,11.07
2023-03-26T13:31:51.273Z,6.78
2023-03-26T13:35:02.589Z,7.85
2023-03-26T13:38:09.075Z,9.93
2023-03-26T13:41:31.571Z,9.00
2023-03-26T13:44:41.018Z,11.30
2023-03-26T13:47:51.802Z,7.50
2023-03-26T13:51:18.856Z,11.68
2023-03-26T13:54:36.046Z,8.63
2023-03-26T13:57:47.526Z,6.88
2023-03-26T14:01:08.159Z,6.90
2023-03-26T14:04:35.132Z,8.15
2023-03-26T14:07:49.413Z,6.65
2023-03-26T14:11:20.350Z,7.05
2023-03-26T14:14:48.518Z,5.40
2023-03-26T14:18:22.723Z,4.85
2023-03-26T14:21:52.116Z,5.30
2023-03-26T14:24:59.760Z,6.28
2023-03-26T14:28:11.268Z,4.57
2023-03-26T14:31:38.291Z,5.05
2023-03-26T14:35:07.866Z,3.90
2023-03-26T14:38:34.244Z,2.58
2023-03-26T14:42:13.014Z,3.53
2023-03-26T14:45:31.644Z,4.53
2023-03-26T14:48:52.630Z,6.88
2023-03-26T14:52:03.285Z,4.50
2023-03-26T14:55:17.841Z,3.22
2023-03-26T14:58:40.624Z,4.72
2023-03-26T15:02:25.271Z,6.28
2023-03-26T15:05:59.335Z,7.63
2023-03-26T15:09:47.081Z,8.57
2023-03-26T15:13:12.766Z,7.63
2023-03-26T15:16:27.970Z,7.68
2023-03-26T15:20:09.767Z,7.70
2023-03-26T15:23:35.420Z,8.80
2023-03-26T15:27:13.960Z,8.18
2023-03-26T15:30:53.675Z,8.85
2023-03-26T15:34:33.250Z,8.45
2023-03-26T15:37:59.286Z,10.15
2023-03-26T15:41:29.962Z,10.55
2023-03-26T15:44:54.829Z,11.32
2023-03-26T15:48:15.241Z,12.77
2023-03-26T15:51:56.100Z,10.75
2023-03-26T15:55:12.516Z,12.18
2023-03-26T15:58:31.260Z,15.85
2023-03-26T16:02:08.665Z,11.73
2023-03-26T16:05:45.445Z,14.60
2023-03-26T16:09:08.398Z,13.38
2023-03-26T16:12:15.695Z,12.13
2023-03-26T16:15:29.097Z,10.27
2023-03-26T16:19:19.163Z,11.35
2023-03-26T16:22:55.489Z,10.68
2023-03-26T16:26:19.169Z,10.13
2023-03-26T16:29:32.394Z,10.02
2023-03-26T16:32:51.722Z,8.57
2023-03-26T16:36:33.057Z,9.30
2023-03-26T16:39:47.036Z,8.60
2023-03-26T16:43:39.973Z,9.82
2023-03-26T16:47:25.578Z,8.65
2023-03-26T16:50:45.650Z,10.15
2023-03-26T16:54:26.113Z,8.85
2023-03-26T16:58:01.483Z,8.63
2023-03-26T17:01:21.615Z,8.82
2023-03-26T17:04:36.836Z,10.68
2023-03-26T17:07:57.643Z,10.43
2023-03-26T17:11:23.073Z,10.05
2023-03-26T17:15:15.312Z,11.25
2023-03-26T17:18:53.526Z,8.95
2023-03-26T17:22:17.508Z,12.52
2023-03-26T17:29:09.471Z,10.80
2023-03-26T17:32:18.696Z,9.43
2023-03-26T17:36:04.899Z,5.47
2023-03-26T17:39:46.610Z,9.05
2023-03-26T17:43:09.248Z,7.97
2023-03-26T17:46:41.660Z,6.72
2023-03-26T17:49:52.090Z,7.32
2023-03-26T17:53:33.005Z,7.30
2023-03-26T17:56:43.811Z,7.05
2023-03-26T17:59:56.577Z,6.80
2023-03-26T18:03:32.604Z,7.95
2023-03-26T18:07:07.274Z,7.63
2023-03-26T18:10:32.780Z,8.25
2023-03-26T18:14:06.513Z,8.85
2023-03-26T18:17:15.537Z,7.85
2023-03-26T18:20:27.327Z,8.75
2023-03-26T18:23:50.380Z,7.75
2023-03-26T18:27:02.597Z,7.38
2023-03-26T18:30:24.427Z,7.47
2023-03-26T18:33:46.456Z,7.07
2023-03-26T18:37:24.997Z,7.75
2023-03-26T18:40:44.557Z,5.68
2023-03-26T18:43:53.488Z,7.43
2023-03-26T18:47:03.142Z,7.68
2023-03-26T18:50:19.338Z,6.32
2023-03-26T18:53:34.015Z,6.57
2023-03-26T18:56:49.810Z,6.32
2023-03-26T19:00:12.343Z,6.28
2023-03-26T19:03:26.686Z,5.00
2023-03-26T19:06:41.281Z,6.05
2023-03-26T19:09:50.697Z,6.03
2023-03-26T19:13:01.684Z,4.60
2023-03-26T19:16:36.012Z,7.18
2023-03-26T19:19:46.263Z,6.18
2023-03-26T19:22:56.108Z,6.80
2023-03-26T19:26:10.885Z,5.35
2023-03-26T19:29:23.702Z,7.13
2023-03-26T19:32:35.239Z,5.57
2023-03-26T19:35:44.032Z,6.13
2023-03-26T19:38:57.649Z,6.78
2023-03-26T19:42:08.426Z,8.38
2023-03-26T19:45:25.149Z,8.20
2023-03-26T19:48:45.277Z,7.35
2023-03-26T19:51:56.938Z,9.60
2023-03-26T19:55:26.150Z,9.95
2023-03-26T19:58:37.733Z,11.57
2023-03-26T20:01:48.137Z,10.90
2023-03-26T20:04:57.734Z,7.40
2023-03-26T20:08:16.804Z,6.32
2023-03-26T20:11:35.772Z,6.72
2023-03-26T20:14:45.520Z,7.10
2023-03-26T20:17:57.545Z,11.07
2023-03-26T20:21:12.838Z,7.40
2023-03-26T20:24:24.177Z,9.25
2023-03-26T20:27:33.311Z,8.10
2023-03-26T20:30:43.084Z,10.77
2023-03-26T20:33:52.310Z,11.50
2023-03-26T20:37:01.562Z,13.10
2023-03-26T20:40:11.274Z,16.15
2023-03-26T20:43:24.106Z,9.55
2023-03-26T20:46:34.536Z,11.68
2023-03-26T20:49:44.325Z,11.85
2023-03-26T20:52:54.375Z,12.48
2023-03-26T20:56:04.529Z,17.98
2023-03-26T20:59:24.744Z,15.52
2023-03-26T21:02:34.691Z,5.78
2023-03-26T21:05:45.654Z,6.40
2023-03-26T21:08:55.916Z,7.47
2023-03-26T21:12:26.453Z,8.50
2023-03-26T21:15:36.601Z,10.52
2023-03-26T21:18:48.010Z,9.20
2023-03-26T21:22:05.838Z,10.52
2023-03-26T21:25:29.706Z,9.00
2023-03-26T21:28:43.042Z,7.80
2023-03-26T21:31:54.113Z,8.45
2023-03-26T21:35:04.002Z,8.38
2023-03-26T21:38:18.431Z,8.20
2023-03-26T21:41:45.498Z,8.07
2023-03-26T21:44:55.758Z,7.97
2023-03-26T21:48:05.637Z,7.47
2023-03-26T21:51:21.903Z,8.32
2023-03-26T21:54:36.264Z,7.80
2023-03-26T21:58:00.042Z,6.13
2023-03-26T22:01:44.714Z,7.75
2023-03-26T22:05:15.652Z,7.85
2023-03-26T22:08:35.026Z,8.63
2023-03-26T22:11:52.042Z,6.80
2023-03-26T22:15:04.358Z,7.40
2023-03-26T22:18:15.947Z,8.48
2023-03-26T22:21:25.694Z,5.18
2023-03-26T22:24:36.297Z,8.60
2023-03-26T22:27:47.548Z,8.57
2023-03-26T22:30:58.498Z,9.35
2023-03-26T22:34:08.379Z,8.82
2023-03-26T22:37:19.975Z,9.90
2023-03-26T22:40:30.262Z,10.05
2023-03-26T22:43:40.496Z,9.73
2023-03-26T22:46:53.524Z,10.40
2023-03-26T22:50:04.810Z,11.93
2023-03-26T22:53:14.853Z,11.63
2023-03-26T22:56:25.419Z,12.15
2023-03-26T22:59:36.199Z,13.70
2023-03-26T23:02:50.397Z,12.80
2023-03-26T23:06:04.289Z,13.57
2023-03-26T23:09:14.241Z,16.67
2023-03-26T23:12:23.283Z,17.95
2023-03-26T23:15:32.715Z,19.95
2023-03-26T23:18:41.251Z,20.17
2023-03-26T23:21:51.714Z,19.85
2023-03-26T23:25:00.847Z,18.75
2023-03-26T23:28:10.994Z,18.33
2023-03-26T23:31:20.422Z,20.02
2023-03-26T23:34:31.005Z,22.30
2023-03-26T23:37:40.754Z,24.98
2023-03-26T23:40:57.194Z,27.45
2023-03-26T23:44:07.046Z,26.90
2023-03-26T23:47:19.423Z,27.65
2023-03-26T23:50:31.636Z,27.80
2023-03-26T23:53:40.360Z,30.08
2023-03-26T23:56:51.265Z,27.33
